Time;durP1;ratioP1;P1;durP2;ratioP2;P2;SDS_P1;SDS_P2;PMS_P1;PMS_P2;Temp;Humidity;BMP_temperature;BMP_pressure;BME280_temperature;BME280_humidity;BME280_pressure;Samples;Min_cycle;Max_cycle;Signal;HPM_P1;HPM_P2
2022/04/29 00:00:25;;;;;;;;;27.67;26.33;;;;;16.19;42.56;102412.41;4979333;28;45716;-49
2022/04/29 00:02:51;;;;;;;;;30.67;25.67;;;;;16.17;42.51;102415.16;4979066;28;52308;-53
2022/04/29 00:05:17;;;;;;;;;29.00;26.33;;;;;16.16;42.93;102408.06;4979065;28;47072;-52
2022/04/29 00:07:42;;;;;;;;;29.67;22.67;;;;;16.12;43.28;102408.28;4979105;28;45491;-49
2022/04/29 00:10:12;;;;;;;;;31.67;26.33;;;;;16.07;43.22;102405.81;4978597;28;59742;-51
2022/04/29 00:12:37;;;;;;;;;29.33;26.33;;;;;15.98;44.12;102401.78;4979573;28;45556;-52
2022/04/29 00:15:03;;;;;;;;;27.33;23.67;;;;;15.95;43.38;102396.53;4978406;28;46335;-50
2022/04/29 00:17:29;;;;;;;;;29.67;26.67;;;;;15.93;43.58;102392.19;4979435;28;45317;-52
2022/04/29 00:19:54;;;;;;;;;25.33;25.33;;;;;15.92;43.56;102394.00;4978336;28;45896;-52
2022/04/29 00:22:21;;;;;;;;;35.67;31.33;;;;;15.86;44.58;102386.25;4979387;28;45263;-49
2022/04/29 00:24:46;;;;;;;;;26.67;25.67;;;;;15.82;43.61;102387.34;4976654;28;46321;-51
2022/04/29 00:27:12;;;;;;;;;29.33;25.67;;;;;15.78;43.99;102391.06;4979225;28;45362;-50
2022/04/29 00:29:37;;;;;;;;;28.67;26.67;;;;;15.75;43.95;102383.16;4978498;28;58884;-49
2022/04/29 00:32:03;;;;;;;;;32.50;27.50;;;;;15.74;44.02;102384.97;4979221;28;45489;-52
2022/04/29 00:34:28;;;;;;;;;28.67;27.00;;;;;15.76;43.90;102376.84;4978431;28;46199;-51
2022/04/29 00:36:54;;;;;;;;;26.00;26.00;;;;;15.75;44.13;102373.31;4978084;28;45427;-49
2022/04/29 00:39:19;;;;;;;;;29.67;28.00;;;;;15.72;44.15;102373.44;4978939;28;45886;-49
2022/04/29 00:41:44;;;;;;;;;31.00;28.33;;;;;15.66;44.23;102371.94;4978908;28;45440;-51
2022/04/29 00:44:10;;;;;;;;;31.67;27.00;;;;;15.63;44.13;102379.22;4977189;28;45976;-49
2022/04/29 00:46:37;;;;;;;;;37.00;30.33;;;;;15.57;44.31;102374.19;4961280;28;45425;-50
2022/04/29 00:49:04;;;;;;;;;37.67;30.67;;;;;15.53;43.92;102373.44;4978185;28;45387;-50
2022/04/29 00:51:29;;;;;;;;;32.67;31.00;;;;;15.50;44.10;102370.88;4979010;28;45283;-49
2022/04/29 00:53:55;;;;;;;;;35.00;30.00;;;;;15.47;44.61;102371.03;4977235;28;66185;-49
2022/04/29 00:56:21;;;;;;;;;32.33;28.67;;;;;15.42;44.42;102365.00;4961308;28;45489;-48
2022/04/29 00:58:48;;;;;;;;;30.00;30.00;;;;;15.35;45.12;102365.28;4961116;28;45573;-51
2022/04/29 01:01:14;;;;;;;;;27.00;24.67;;;;;15.30;44.57;102364.63;4967181;28;45723;-50
2022/04/29 01:03:39;;;;;;;;;37.00;29.00;;;;;15.28;45.02;102353.13;4959894;28;65257;-53
2022/04/29 01:06:05;;;;;;;;;30.00;25.33;;;;;15.27;45.00;102354.06;4944588;28;45435;-48
2022/04/29 01:08:31;;;;;;;;;37.67;31.00;;;;;15.26;45.16;102349.63;4960750;28;56771;-49
2022/04/29 01:10:56;;;;;;;;;33.00;30.33;;;;;15.22;45.30;102348.03;4945181;28;45512;-49
2022/04/29 01:13:22;;;;;;;;;30.00;27.67;;;;;15.17;44.87;102342.84;4978580;28;45635;-51
2022/04/29 01:15:48;;;;;;;;;31.33;29.67;;;;;15.16;44.97;102342.94;4960299;28;62735;-51
2022/04/29 01:18:14;;;;;;;;;36.00;30.00;;;;;15.17;45.06;102331.28;4978637;28;45504;-53
2022/04/29 01:20:41;;;;;;;;;31.33;29.33;;;;;15.17;44.89;102333.97;4944912;28;45353;-52
2022/04/29 01:23:10;;;;;;;;;41.33;30.33;;;;;15.16;45.00;102332.22;4977633;28;46186;-53
2022/04/29 01:25:35;;;;;;;;;31.33;27.33;;;;;15.16;44.89;102330.41;4977865;28;45476;-50
2022/04/29 01:28:01;;;;;;;;;35.00;29.00;;;;;15.17;45.02;102336.63;4985665;28;45354;-50
2022/04/29 01:30:26;;;;;;;;;34.67;30.00;;;;;15.18;44.59;102341.06;4977715;28;59912;-50
2022/04/29 01:32:53;;;;;;;;;32.00;30.00;;;;;15.18;44.78;102336.56;4977443;28;66480;-52
2022/04/29 01:35:19;;;;;;;;;30.67;28.00;;;;;15.17;44.67;102340.19;4961700;28;45488;-50
2022/04/29 01:37:44;;;;;;;;;36.00;29.00;;;;;15.15;44.95;102342.06;4980953;28;45251;-50
2022/04/29 01:40:10;;;;;;;;;42.67;31.33;;;;;15.15;45.00;102350.13;4982197;28;45391;-51
2022/04/29 01:42:36;;;;;;;;;34.00;28.00;;;;;15.14;44.74;102339.47;4981185;28;45445;-53
2022/04/29 01:45:02;;;;;;;;;24.33;20.33;;;;;15.13;44.61;102343.94;4981587;28;45308;-54
2022/04/29 01:47:28;;;;;;;;;33.00;30.00;;;;;15.15;44.80;102346.56;4981638;28;45304;-49
2022/04/29 01:49:53;;;;;;;;;27.00;27.00;;;;;15.16;44.88;102337.56;4981231;28;45634;-53
2022/04/29 01:52:18;;;;;;;;;31.67;25.33;;;;;15.14;44.72;102340.31;4980304;28;68199;-52
2022/04/29 01:54:44;;;;;;;;;35.33;30.00;;;;;15.09;44.76;102342.34;4975816;28;63854;-53
2022/04/29 01:57:09;;;;;;;;;38.33;31.33;;;;;15.03;44.83;102338.13;4963720;28;59614;-51
2022/04/29 01:59:35;;;;;;;;;33.00;30.67;;;;;15.01;45.00;102341.81;4964331;28;45393;-50
2022/04/29 02:02:02;;;;;;;;;29.33;29.33;;;;;14.98;45.18;102339.25;4980715;28;45964;-50
2022/04/29 02:04:27;;;;;;;;;35.33;30.33;;;;;14.96;45.13;102351.88;4981320;28;45631;-53
2022/04/29 02:06:53;;;;;;;;;34.33;30.33;;;;;14.94;45.12;102348.38;4980885;28;49667;-53
2022/04/29 02:09:18;;;;;;;;;34.00;29.67;;;;;14.92;45.21;102347.59;4981952;28;45254;-51
2022/04/29 02:12:03;;;;;;;;;31.33;28.33;;;;;14.90;45.05;102345.00;4980036;28;65346;-51
2022/04/29 02:14:29;;;;;;;;;38.67;31.00;;;;;14.88;45.08;102341.50;4981349;28;45347;-51
2022/04/29 02:16:55;;;;;;;;;32.67;26.33;;;;;14.89;45.27;102345.91;4980182;28;45434;-50
2022/04/29 02:19:22;;;;;;;;;37.33;31.00;;;;;14.87;45.58;102346.00;4981236;28;45377;-51
2022/04/29 02:21:47;;;;;;;;;31.67;28.00;;;;;14.87;45.24;102351.34;4961065;28;46222;-52
2022/04/29 02:24:13;;;;;;;;;33.67;30.33;;;;;14.90;45.30;102353.03;4970922;28;45472;-51
2022/04/29 02:26:38;;;;;;;;;39.67;33.00;;;;;14.89;45.55;102351.28;4977218;28;60888;-50
2022/04/29 02:29:03;;;;;;;;;35.00;30.33;;;;;14.89;45.13;102360.16;4979857;28;62248;-53
2022/04/29 02:31:29;;;;;;;;;36.67;32.00;;;;;14.92;45.18;102356.50;4980328;28;65398;-51
2022/04/29 02:33:54;;;;;;;;;36.00;30.00;;;;;14.94;45.58;102354.63;4980040;28;61825;-50
2022/04/29 02:36:20;;;;;;;;;37.67;30.00;;;;;14.94;45.47;102359.97;4980300;28;50350;-51
2022/04/29 02:38:45;;;;;;;;;27.33;26.00;;;;;14.94;45.72;102359.09;4981063;28;45310;-52
2022/04/29 02:41:11;;;;;;;;;33.33;30.33;;;;;14.90;45.46;102355.69;4979939;28;66874;-50
2022/04/29 02:43:36;;;;;;;;;37.33;32.00;;;;;14.88;45.34;102352.22;4980901;28;60332;-51
2022/04/29 02:46:02;;;;;;;;;33.67;31.00;;;;;14.87;45.63;102354.03;4979373;28;45364;-50
2022/04/29 02:48:27;;;;;;;;;35.33;29.67;;;;;14.87;45.51;102358.50;4980345;28;45297;-50
2022/04/29 02:50:52;;;;;;;;;33.00;28.00;;;;;14.86;45.29;102346.03;4979151;28;45338;-52
2022/04/29 02:53:18;;;;;;;;;28.00;26.00;;;;;14.90;45.23;102355.69;4980133;28;60361;-51
2022/04/29 02:55:43;;;;;;;;;30.00;28.33;;;;;14.96;45.09;102354.56;4980158;28;45403;-50
2022/04/29 02:58:09;;;;;;;;;32.00;27.67;;;;;14.96;44.92;102352.72;4980431;28;60164;-49
2022/04/29 03:00:34;;;;;;;;;36.00;29.33;;;;;14.97;45.68;102353.63;4980017;28;46633;-50
2022/04/29 03:02:59;;;;;;;;;30.67;27.67;;;;;14.91;45.42;102352.06;4979322;28;62644;-51
2022/04/29 03:05:26;;;;;;;;;37.33;30.33;;;;;14.88;45.31;102346.84;4979147;28;45366;-50
2022/04/29 03:07:51;;;;;;;;;30.67;29.33;;;;;14.84;45.45;102355.97;4979752;28;45670;-51
2022/04/29 03:10:17;;;;;;;;;32.33;29.67;;;;;14.81;45.81;102356.06;4980014;28;45276;-52
2022/04/29 03:12:43;;;;;;;;;37.00;30.67;;;;;14.75;45.37;102354.53;4953147;28;45388;-50
2022/04/29 03:15:18;;;;;;;;;38.00;30.00;;;;;14.71;45.89;102347.59;4980107;28;59125;-52
2022/04/29 03:20:38;;;;;;;;;31.67;28.33;;;;;14.58;45.70;102349.03;4963454;28;45776;-52
2022/04/29 03:23:03;;;;;;;;;42.67;32.33;;;;;14.55;45.77;102345.53;4966891;28;45790;-50
2022/04/29 03:25:29;;;;;;;;;36.33;31.67;;;;;14.52;46.07;102339.41;4979578;28;45527;-53
2022/04/29 03:27:55;;;;;;;;;28.00;27.67;;;;;14.51;45.77;102332.31;4943766;28;45322;-51
2022/04/29 03:30:20;;;;;;;;;37.00;31.67;;;;;14.52;45.90;102336.75;4975251;28;45690;-52
2022/04/29 03:32:53;;;;;;;;;43.33;33.67;;;;;14.49;45.81;102340.41;4948121;28;45376;-50
2022/04/29 03:35:19;;;;;;;;;35.33;29.67;;;;;14.48;46.15;102333.31;4953007;28;45388;-52
2022/04/29 03:37:45;;;;;;;;;35.33;31.33;;;;;14.47;46.02;102325.34;4951524;28;45503;-51
2022/04/29 03:40:12;;;;;;;;;28.00;22.67;;;;;14.43;45.90;102326.41;4962337;28;46339;-52
2022/04/29 03:42:38;;;;;;;;;30.67;27.67;;;;;14.38;46.20;102324.81;4983122;28;45530;-51
2022/04/29 03:45:05;;;;;;;;;34.67;27.33;;;;;14.38;46.02;102316.78;4949149;28;45423;-53
2022/04/29 03:47:30;;;;;;;;;31.67;28.67;;;;;14.37;46.04;102312.34;4931838;28;45252;-52
2022/04/29 03:49:56;;;;;;;;;30.33;29.00;;;;;14.37;45.78;102311.50;4930756;28;45435;-50
2022/04/29 03:52:22;;;;;;;;;36.67;32.33;;;;;14.35;46.25;102305.31;4944723;28;45388;-53
2022/04/29 03:54:47;;;;;;;;;29.33;28.67;;;;;14.34;46.15;102298.22;4945539;28;45402;-53
2022/04/29 03:57:13;;;;;;;;;36.00;32.67;;;;;14.34;46.21;102306.25;4944692;28;47073;-51
2022/04/29 03:59:39;;;;;;;;;38.67;31.33;;;;;14.29;46.62;102298.44;4929733;28;47132;-51
2022/04/29 04:02:05;;;;;;;;;32.33;28.00;;;;;14.28;46.17;102306.53;4943838;28;46023;-53
2022/04/29 04:04:30;;;;;;;;;33.67;31.33;;;;;14.26;46.21;102309.25;4978255;28;45458;-53
2022/04/29 04:07:01;;;;;;;;;28.67;26.67;;;;;14.27;46.39;102310.16;4962656;28;45618;-49
2022/04/29 04:09:26;;;;;;;;;44.00;29.00;;;;;14.26;46.27;102309.25;4980890;28;46120;-51
2022/04/29 04:11:52;;;;;;;;;25.33;25.33;;;;;14.26;46.79;102308.41;4980415;28;45484;-52
2022/04/29 04:14:18;;;;;;;;;33.33;30.00;;;;;14.25;46.23;102301.28;4980202;28;45476;-53
2022/04/29 04:16:44;;;;;;;;;33.00;30.67;;;;;14.29;46.40;102308.25;4962380;28;45552;-51
2022/04/29 04:19:10;;;;;;;;;37.33;31.67;;;;;14.30;46.42;102307.31;4962400;28;46492;-52
2022/04/29 04:21:35;;;;;;;;;33.00;29.33;;;;;14.30;46.51;102313.56;4961006;28;45528;-50
2022/04/29 04:24:00;;;;;;;;;34.00;30.33;;;;;14.30;46.27;102307.31;4978529;28;45377;-49
2022/04/29 04:26:26;;;;;;;;;38.33;34.00;;;;;14.30;46.23;102299.28;4960156;28;55586;-48
2022/04/29 04:28:51;;;;;;;;;36.00;26.33;;;;;14.27;46.55;102308.31;4978446;28;45901;-52
2022/04/29 04:31:17;;;;;;;;;38.33;31.33;;;;;14.23;46.36;102310.25;4978157;28;57860;-49
2022/04/29 04:33:42;;;;;;;;;34.67;30.33;;;;;14.23;46.17;102306.72;4963365;28;46855;-50
2022/04/29 04:36:09;;;;;;;;;36.33;30.33;;;;;14.22;46.25;102310.31;4981948;28;55582;-51
2022/04/29 04:38:36;;;;;;;;;37.00;33.00;;;;;14.18;46.28;102300.69;4979086;28;47154;-52
2022/04/29 04:41:02;;;;;;;;;36.00;31.00;;;;;14.18;46.48;102308.72;4977032;28;45497;-52
2022/04/29 04:43:27;;;;;;;;;35.67;30.00;;;;;14.17;46.33;102312.31;4978776;28;45635;-48
2022/04/29 04:45:53;;;;;;;;;39.33;33.00;;;;;14.19;46.34;102313.13;4977676;28;45678;-52
2022/04/29 04:48:18;;;;;;;;;30.67;29.00;;;;;14.17;46.21;102315.88;4979503;28;46881;-50
2022/04/29 04:50:44;;;;;;;;;35.67;31.67;;;;;14.20;46.30;102313.06;4978088;28;45242;-51
2022/04/29 04:53:09;;;;;;;;;32.67;28.67;;;;;14.22;46.25;102313.00;4977699;28;45496;-51
2022/04/29 04:55:37;;;;;;;;;33.33;29.67;;;;;14.25;46.23;102312.88;4978429;28;45420;-52
2022/04/29 04:58:03;;;;;;;;;34.00;31.33;;;;;14.27;46.27;102318.16;4978020;28;45382;-51
2022/04/29 05:00:29;;;;;;;;;28.00;28.00;;;;;14.28;46.21;102309.22;4978278;28;45388;-49
2022/04/29 05:02:54;;;;;;;;;40.67;32.33;;;;;14.29;46.00;102313.59;4978702;28;45740;-54
2022/04/29 05:05:20;;;;;;;;;36.67;31.00;;;;;14.30;46.07;102318.91;4976697;28;60885;-49
2022/04/29 05:07:45;;;;;;;;;36.67;32.00;;;;;14.31;46.14;102320.63;4980911;28;45395;-52
2022/04/29 05:10:11;;;;;;;;;35.33;28.33;;;;;14.36;45.97;102315.97;4978253;28;45416;-52
2022/04/29 05:12:44;;;;;;;;;30.67;27.33;;;;;14.37;46.01;102322.22;4980422;28;45313;-51
2022/04/29 05:15:10;;;;;;;;;38.67;29.67;;;;;14.35;45.87;102322.28;4979383;28;45460;-49
2022/04/29 05:17:35;;;;;;;;;31.00;28.67;;;;;14.37;45.89;102324.88;4980822;28;45920;-52
2022/04/29 05:20:02;;;;;;;;;28.67;26.33;;;;;14.39;46.00;102323.00;4980721;28;45826;-51
2022/04/29 05:22:29;;;;;;;;;31.33;27.67;;;;;14.42;45.92;102325.56;4981093;28;45610;-53
2022/04/29 05:24:55;;;;;;;;;41.33;30.00;;;;;14.43;45.97;102319.28;4981185;28;45644;-50
2022/04/29 05:27:22;;;;;;;;;33.67;31.00;;;;;14.48;45.93;102327.09;4981019;28;45747;-52
2022/04/29 05:29:48;;;;;;;;;34.67;30.67;;;;;14.50;45.99;102330.59;4982052;28;45428;-51
2022/04/29 05:32:14;;;;;;;;;33.33;30.33;;;;;14.50;45.71;102338.63;4981039;28;59110;-53
2022/04/29 05:34:39;;;;;;;;;25.67;25.67;;;;;14.52;45.74;102340.31;4981224;28;45846;-50
2022/04/29 05:37:05;;;;;;;;;33.33;24.33;;;;;14.53;45.73;102341.16;4981167;28;45531;-52
2022/04/29 05:42:14;;;;;;;;;39.33;33.00;;;;;14.49;45.64;102343.09;4961456;28;45734;-48
2022/04/29 05:44:40;;;;;;;;;32.33;29.67;;;;;14.44;45.91;102341.56;4946730;28;59924;-51
2022/04/29 05:47:06;;;;;;;;;37.67;32.00;;;;;14.38;45.68;102338.19;4962980;28;46040;-51
2022/04/29 05:49:31;;;;;;;;;30.67;28.67;;;;;14.37;46.29;102341.81;4980733;28;45365;-49
2022/04/29 05:51:59;;;;;;;;;37.00;29.33;;;;;14.36;46.00;102353.44;4980657;28;45424;-51
2022/04/29 05:54:25;;;;;;;;;33.33;30.00;;;;;14.36;45.90;102349.91;4985625;28;45856;-49
2022/04/29 05:56:50;;;;;;;;;33.67;28.33;;;;;14.37;46.12;102355.19;4979812;28;66064;-50
2022/04/29 05:59:16;;;;;;;;;34.33;30.67;;;;;14.41;46.04;102349.72;4980430;28;64465;-53
2022/04/29 06:01:41;;;;;;;;;34.00;31.00;;;;;14.38;46.03;102361.44;4947462;28;45453;-50
2022/04/29 06:04:07;;;;;;;;;35.00;30.33;;;;;14.37;46.00;102363.22;4981202;28;45350;-52
2022/04/29 06:06:33;;;;;;;;;29.00;26.00;;;;;14.37;46.55;102365.91;4980651;28;60632;-50
2022/04/29 06:08:58;;;;;;;;;37.67;28.67;;;;;14.32;46.37;102367.88;4979438;28;45281;-49
2022/04/29 06:11:24;;;;;;;;;35.00;29.33;;;;;14.32;46.30;102372.38;4979637;28;58066;-50
2022/04/29 06:13:50;;;;;;;;;38.00;31.00;;;;;14.29;46.68;102370.69;4981077;28;45701;-49
2022/04/29 06:16:17;;;;;;;;;37.67;31.67;;;;;14.27;46.55;102385.06;4980685;28;46189;-52
2022/04/29 06:18:43;;;;;;;;;38.33;32.67;;;;;14.25;46.52;102374.44;4980251;28;45335;-49
2022/04/29 06:21:08;;;;;;;;;37.33;30.00;;;;;14.25;46.68;102385.16;4981479;28;45321;-49
2022/04/29 06:23:34;;;;;;;;;32.67;27.00;;;;;14.25;46.63;102369.09;4961904;28;59256;-53
2022/04/29 06:25:59;;;;;;;;;39.00;31.33;;;;;14.30;46.75;102369.78;4980455;28;47783;-53
2022/04/29 06:28:24;;;;;;;;;38.00;33.00;;;;;14.37;46.63;102373.94;4978861;28;45412;-52
2022/04/29 06:30:51;;;;;;;;;39.67;31.33;;;;;14.45;46.32;102376.28;4973892;28;53722;-53
2022/04/29 06:33:17;;;;;;;;;29.67;28.33;;;;;14.50;46.29;102378.78;4945487;28;45593;-53
2022/04/29 06:35:43;;;;;;;;;32.33;31.33;;;;;14.54;46.80;102378.56;4945653;28;47649;-58
2022/04/29 06:38:10;;;;;;;;;28.33;23.67;;;;;14.65;46.88;102371.94;4944814;28;45504;-58
2022/04/29 06:40:35;;;;;;;;;27.67;22.33;;;;;14.83;46.72;102379.19;4947458;28;45259;-58
2022/04/29 06:43:01;;;;;;;;;36.67;32.00;;;;;14.98;45.97;102369.63;4978523;28;49480;-58
2022/04/29 06:45:26;;;;;;;;;34.33;29.00;;;;;15.11;46.08;102372.63;4979825;28;45997;-58
2022/04/29 06:47:52;;;;;;;;;30.33;28.33;;;;;15.21;46.19;102373.06;4978873;28;65309;-58
2022/04/29 06:50:17;;;;;;;;;41.67;31.67;;;;;15.26;45.70;102373.75;4975424;28;47372;-58
2022/04/29 06:52:42;;;;;;;;;29.33;27.00;;;;;15.21;45.52;102368.63;4979274;28;45508;-59
2022/04/29 06:55:08;;;;;;;;;37.33;31.67;;;;;15.12;45.32;102377.06;4980396;28;54963;-58
2022/04/29 06:57:34;;;;;;;;;28.67;26.00;;;;;15.02;46.16;102375.72;4979825;28;45491;-58
2022/04/29 07:00:00;;;;;;;;;39.00;33.00;;;;;14.95;45.84;102384.94;4977394;28;45381;-58
2022/04/29 07:02:26;;;;;;;;;36.67;32.33;;;;;14.90;45.74;102390.53;4979118;28;45553;-58
2022/04/29 07:04:53;;;;;;;;;46.00;30.67;;;;;14.89;46.64;102405.72;4943498;28;46943;-57
2022/04/29 07:07:18;;;;;;;;;34.00;32.33;;;;;14.98;46.52;102407.13;4977976;28;45478;-57
2022/04/29 07:09:44;;;;;;;;;36.67;31.33;;;;;15.08;46.52;102406.72;4976818;28;45500;-58
2022/04/29 07:12:10;;;;;;;;;45.33;33.00;;;;;15.13;46.20;102407.41;4961557;28;45322;-58
2022/04/29 07:14:36;;;;;;;;;39.67;34.00;;;;;15.12;46.51;102409.22;4980157;28;45582;-58
2022/04/29 07:17:01;;;;;;;;;37.00;31.00;;;;;15.10;46.48;102413.75;4975696;28;45808;-58
2022/04/29 07:19:26;;;;;;;;;37.67;32.33;;;;;15.23;46.34;102411.41;4970950;28;46693;-58
2022/04/29 07:21:52;;;;;;;;;38.00;32.67;;;;;15.42;45.88;102406.09;4974245;28;45389;-59
2022/04/29 07:24:18;;;;;;;;;37.67;33.00;;;;;15.57;45.94;102406.38;4961477;28;45736;-58
2022/04/29 07:26:44;;;;;;;;;41.00;34.33;;;;;15.64;45.74;102397.06;4945422;28;45503;-58
2022/04/29 07:29:09;;;;;;;;;29.67;28.67;;;;;15.80;45.51;102394.53;4979297;28;45437;-58
2022/04/29 07:31:34;;;;;;;;;41.67;34.67;;;;;15.92;45.58;102388.66;4979548;28;45540;-58
2022/04/29 07:34:00;;;;;;;;;50.00;38.75;;;;;16.06;45.17;102396.03;4978068;28;45624;-58
2022/04/29 07:41:53;;;;;;;;;43.67;36.00;;;;;16.01;44.73;102401.63;4978618;28;45489;-58
2022/04/29 07:44:18;;;;;;;;;39.00;34.00;;;;;16.05;44.79;102399.66;4979029;28;60483;-58
2022/04/29 07:46:47;;;;;;;;;42.50;34.50;;;;;16.15;44.74;102403.66;4979365;28;50338;-58
2022/04/29 07:49:13;;;;;;;;;79.00;70.00;;;;;16.34;45.02;102405.44;4961988;28;45430;-58
2022/04/29 07:51:38;;;;;;;;;45.67;35.67;;;;;16.54;44.62;102404.44;4979840;28;45849;-58
2022/04/29 07:54:04;;;;;;;;;43.67;37.00;;;;;16.77;44.08;102397.06;4977155;28;45495;-58
2022/04/29 07:56:30;;;;;;;;;48.67;38.33;;;;;17.06;43.55;102400.06;4962093;28;45343;-58
2022/04/29 07:58:56;;;;;;;;;46.00;33.67;;;;;17.55;43.27;102404.63;4961445;28;45301;-59
2022/04/29 08:01:21;;;;;;;;;48.67;38.67;;;;;18.07;42.74;102398.22;4979174;28;45501;-58
2022/04/29 08:03:47;;;;;;;;;43.33;34.33;;;;;18.25;41.81;102401.69;4979126;28;46302;-58
2022/04/29 08:06:13;;;;;;;;;44.67;35.33;;;;;18.40;41.95;102402.66;4979300;28;45386;-58
2022/04/29 08:08:38;;;;;;;;;36.67;32.33;;;;;18.59;41.50;102400.63;4979460;28;45517;-58
2022/04/29 08:11:04;;;;;;;;;41.00;31.33;;;;;18.79;40.59;102403.97;4978367;28;45875;-58
2022/04/29 08:13:29;;;;;;;;;47.00;37.00;;;;;18.95;40.82;102401.25;4978702;28;46316;-58
2022/04/29 08:15:55;;;;;;;;;44.67;35.33;;;;;19.21;40.71;102406.88;4978480;28;45772;-58
2022/04/29 08:18:20;;;;;;;;;50.67;37.67;;;;;19.48;39.96;102415.94;4961957;28;45498;-58
2022/04/29 08:20:46;;;;;;;;;40.67;34.00;;;;;19.57;39.74;102413.63;4979098;28;45378;-58
2022/04/29 08:23:12;;;;;;;;;49.33;39.00;;;;;20.27;39.45;102412.78;4961712;28;46022;-58
2022/04/29 08:25:37;;;;;;;;;45.00;34.67;;;;;20.95;38.28;102405.56;4978852;28;45469;-58
2022/04/29 08:28:03;;;;;;;;;39.33;32.00;;;;;20.82;37.50;102413.69;4978614;28;45568;-58
2022/04/29 08:30:30;;;;;;;;;47.33;37.00;;;;;20.42;37.22;102410.91;4978865;28;46273;-58
2022/04/29 08:32:56;;;;;;;;;39.67;34.33;;;;;19.99;38.18;102410.06;4978455;28;45345;-58
2022/04/29 08:35:21;;;;;;;;;42.67;37.00;;;;;19.80;38.36;102410.38;4978625;28;45971;-58
2022/04/29 08:37:47;;;;;;;;;50.00;38.33;;;;;19.85;38.91;102412.78;4970134;28;60069;-58
2022/04/29 08:40:12;;;;;;;;;51.00;39.00;;;;;20.05;38.53;102410.63;4978645;28;45522;-59
2022/04/29 08:42:38;;;;;;;;;37.33;32.00;;;;;20.27;38.42;102410.97;4978203;28;46104;-59
2022/04/29 08:45:08;;;;;;;;;46.67;35.67;;;;;20.94;37.89;102406.56;4966406;28;45385;-59
2022/04/29 08:47:35;;;;;;;;;43.33;36.00;;;;;21.46;35.93;102402.03;4976372;28;45555;-59
2022/04/29 08:50:01;;;;;;;;;42.33;34.00;;;;;21.47;36.22;102401.91;4977679;28;45227;-60
2022/04/29 08:52:27;;;;;;;;;34.33;31.00;;;;;21.49;35.55;102412.63;4977051;28;46226;-58
2022/04/29 09:00:24;;;;;;;;;45.33;34.67;;;;;21.54;35.59;102402.38;4978355;28;45515;-59
2022/04/29 09:02:49;;;;;;;;;35.67;33.67;;;;;21.78;36.29;102407.00;4977578;28;49825;-59
2022/04/29 09:05:15;;;;;;;;;35.67;32.33;;;;;22.30;34.51;102397.72;4978213;28;45656;-59
2022/04/29 09:08:13;;;;;;;;;37.00;32.33;;;;;22.73;34.38;102396.31;4954101;28;56117;-59
2022/04/29 09:10:56;;;;;;;;;43.33;36.67;;;;;22.68;34.82;102395.81;4966601;28;45496;-59
2022/04/29 09:13:26;;;;;;;;;38.00;33.67;;;;;22.46;34.70;102394.75;4978516;28;45330;-59
2022/04/29 09:16:10;;;;;;;;;40.00;33.33;;;;;22.30;34.65;102397.72;4945370;28;45464;-59
2022/04/29 09:18:40;;;;;;;;;41.00;33.00;;;;;22.35;34.95;102404.66;4978002;28;45393;-59
2022/04/29 09:21:12;;;;;;;;;34.67;32.33;;;;;22.47;34.93;102395.59;4977930;28;45601;-59
2022/04/29 09:23:43;;;;;;;;;36.00;33.67;;;;;22.54;34.13;102391.47;4979188;28;45369;-59
2022/04/29 09:26:27;;;;;;;;;32.00;31.33;;;;;22.53;34.49;102384.31;4972834;28;45500;-59
2022/04/29 09:28:53;;;;;;;;;36.67;33.67;;;;;22.37;34.86;102381.91;4972485;28;45362;-59
2022/04/29 09:31:19;;;;;;;;;40.33;34.67;;;;;22.35;34.21;102388.38;4969531;28;45363;-60
2022/04/29 09:33:57;;;;;;;;;36.67;33.00;;;;;22.58;34.27;102381.22;4954860;28;47855;-59
2022/04/29 09:36:24;;;;;;;;;51.00;34.33;;;;;23.34;33.82;102386.28;4977533;28;45333;-59
2022/04/29 09:41:35;;;;;;;;;43.67;36.00;;;;;24.18;32.09;102392.09;4978166;28;45393;-58
2022/04/29 09:44:00;;;;;;;;;41.50;35.50;;;;;24.09;33.01;102388.31;4943527;28;64928;-58
2022/04/29 09:46:26;;;;;;;;;33.00;31.67;;;;;24.33;32.18;102384.53;4976882;28;63632;-58
2022/04/29 09:48:58;;;;;;;;;40.00;32.67;;;;;24.16;32.29;102382.34;4963681;28;45583;-58
2022/04/29 09:51:51;;;;;;;;;48.33;36.67;;;;;23.97;31.96;102383.03;4973768;28;45613;-59
2022/04/29 09:54:21;;;;;;;;;33.00;29.33;;;;;23.94;31.66;102386.88;4976468;28;46513;-58
2022/04/29 09:57:01;;;;;;;;;37.33;31.00;;;;;24.07;32.11;102376.69;4977811;28;45419;-58
2022/04/29 09:59:30;;;;;;;;;37.00;32.67;;;;;24.09;31.92;102384.72;4969747;28;45409;-60
2022/04/29 10:01:56;;;;;;;;;31.00;29.33;;;;;24.17;32.05;102376.81;4958015;28;45425;-58
2022/04/29 10:04:22;;;;;;;;;34.67;30.67;;;;;24.32;31.99;102381.97;4963884;28;45402;-58
2022/04/29 10:06:49;;;;;;;;;36.67;33.33;;;;;24.15;31.74;102380.66;4963555;28;45265;-59
2022/04/29 10:09:15;;;;;;;;;33.00;31.00;;;;;23.76;31.96;102379.19;4964097;28;45345;-59
2022/04/29 10:11:41;;;;;;;;;33.67;30.67;;;;;23.70;32.31;102384.25;4974345;28;61180;-59
2022/04/29 10:14:06;;;;;;;;;36.33;33.33;;;;;23.78;32.26;102384.53;4965693;28;45792;-59
2022/04/29 10:16:33;;;;;;;;;38.33;32.67;;;;;23.76;31.98;102386.50;4954826;28;63602;-58
2022/04/29 10:21:50;;;;;;;;;39.00;32.33;;;;;23.27;32.26;102383.16;4976839;28;45296;-59
2022/04/29 10:24:16;;;;;;;;;40.00;32.33;;;;;23.16;32.40;102386.72;4979505;28;46356;-58
2022/04/29 10:26:41;;;;;;;;;33.00;31.00;;;;;23.64;32.21;102376.63;4980946;28;45434;-59
2022/04/29 10:29:07;;;;;;;;;33.00;30.33;;;;;24.55;31.39;102388.16;4963341;28;45484;-59
2022/04/29 10:31:32;;;;;;;;;33.00;30.67;;;;;25.24;30.02;102382.22;4963001;28;48152;-58
2022/04/29 10:34:27;;;;;;;;;36.33;32.67;;;;;25.60;29.95;102384.53;4978597;28;45908;-57
2022/04/29 10:36:52;;;;;;;;;39.67;31.67;;;;;26.24;28.85;102371.50;4979454;28;45552;-58
2022/04/29 10:39:21;;;;;;;;;40.00;34.00;;;;;26.35;27.03;102379.56;4980697;28;45270;-57
2022/04/29 10:42:09;;;;;;;;;39.33;31.67;;;;;26.05;28.42;102372.38;4980373;28;45356;-55
2022/04/29 10:44:35;;;;;;;;;41.00;33.33;;;;;25.75;28.28;102379.59;4967460;28;46176;-52
2022/04/29 10:47:23;;;;;;;;;36.33;31.67;;;;;25.01;28.48;102377.94;4962887;28;45512;-52
2022/04/29 10:49:49;;;;;;;;;34.33;30.33;;;;;24.67;29.41;102365.38;4979777;28;45370;-50
2022/04/29 10:52:27;;;;;;;;;36.33;32.67;;;;;25.29;28.81;102370.91;4978929;28;60625;-51
2022/04/29 10:54:56;;;;;;;;;34.00;31.00;;;;;26.49;26.94;102367.38;4961846;28;46891;-51
2022/04/29 10:57:44;;;;;;;;;35.67;32.00;;;;;27.05;26.78;102364.84;4979224;28;45516;-51
2022/04/29 11:00:11;;;;;;;;;30.67;27.00;;;;;26.86;25.87;102369.38;4955773;28;45540;-52
2022/04/29 11:02:36;;;;;;;;;38.33;31.33;;;;;26.83;25.28;102360.59;4961241;28;45465;-50
2022/04/29 11:05:02;;;;;;;;;28.33;27.67;;;;;27.63;24.74;102371.16;4972151;28;46958;-52
2022/04/29 11:07:46;;;;;;;;;29.33;25.00;;;;;28.19;23.13;102369.25;4979232;28;45768;-51
2022/04/29 11:10:22;;;;;;;;;31.67;30.33;;;;;28.58;23.82;102374.38;4967986;28;45291;-54
2022/04/29 11:12:58;;;;;;;;;27.33;25.33;;;;;29.68;22.87;102380.22;4976472;28;45546;-52
2022/04/29 11:15:25;;;;;;;;;26.00;26.00;;;;;30.23;21.62;102374.41;4972376;28;46961;-50
2022/04/29 11:17:50;;;;;;;;;29.33;26.33;;;;;30.73;21.45;102375.28;4978582;28;45346;-53
2022/04/29 11:20:20;;;;;;;;;35.33;29.33;;;;;30.72;21.48;102366.19;4978903;28;45472;-54
2022/04/29 11:26:07;;;;;;;;;39.33;30.00;;;;;30.44;21.87;102374.75;4970865;28;46025;-54
2022/04/29 11:28:32;;;;;;;;;38.00;32.00;;;;;30.63;20.53;102369.97;4956959;28;45719;-52
2022/04/29 11:31:05;;;;;;;;;50.00;31.33;;;;;30.49;21.05;102363.28;4977784;28;59335;-52
2022/04/29 11:33:31;;;;;;;;;40.00;33.67;;;;;30.42;21.39;102360.34;4977679;28;45436;-56